^^
Grace C. Lehan Memorial Weather Station Historical Data
Daily Summary for June 18, 2021 Units:  English    Metric   Both
Daily Weekly Monthly Yearly
  High: Low: Average:
Temperature: 42.2 °F 36.5 °F 39 °F
Dew Point: 35.8 °F 29.1 °F 33.3 °F
Humidity: 95% 59.9% 81%
Wind Speed: 3.1mph 0mph 0.5mph
Wind Gust: 11mph - -
Wind- - South
Pressure: 30.18 in 29.79 in -
Precipitation: 0.33 in    
 
 
Tabular Data for June 18, 2021
Time Temperature Dew Point Pressure Wind Wind Speed Wind Gust Humidity Rainfall Rate (Hourly) solar
00:04 42.2 °F 29.3 °F 30.16 in NW 0.6 mph 11 mph 59.9% 0.00 in 0 W/m2
00:09 42 °F 29.2 °F 30.16 in NW 1.5 mph 6 mph 60% 0.00 in 0 W/m2
00:14 41.9 °F 29.1 °F 30.16 in WNW 3.1 mph 11 mph 60% 0.00 in 0 W/m2
00:19 41.9 °F 29.3 °F 30.16 in WNW 0.4 mph 11 mph 60.7% 0.00 in 0 W/m2
00:24 41.7 °F 29.4 °F 30.16 in WNW 2.7 mph 11 mph 61.4% 0.00 in 0 W/m2
00:29 41.6 °F 29.2 °F 30.16 in WNW 1.8 mph 11 mph 61.2% 0.00 in 0 W/m2
00:34 41.6 °F 29.2 °F 30.16 in WNW 0.2 mph 11 mph 61.2% 0.00 in 0 W/m2
00:39 41.6 °F 29.2 °F 30.17 in Calm   3 mph 61.2% 0.00 in 0 W/m2
00:44 41.6 °F 29.2 °F 30.16 in Calm   3 mph 61% 0.00 in 0 W/m2
00:49 41.5 °F 29.3 °F 30.17 in WNW 0.6 mph 4 mph 61.6% 0.00 in 0 W/m2
00:54 41.5 °F 29.5 °F 30.17 in WNW 1.2 mph 6 mph 62% 0.00 in 0 W/m2
00:59 41.5 °F 29.5 °F 30.17 in WNW 0.9 mph 6 mph 62% 0.00 in 0 W/m2
01:04 41.5 °F 29.5 °F 30.17 in WNW 0.1 mph 6 mph 62% 0.00 in 0 W/m2
01:09 41.5 °F 29.5 °F 30.17 in WNW 1.7 mph 7 mph 62% 0.00 in 0 W/m2
01:14 41.5 °F 29.7 °F 30.16 in WNW 2.3 mph 8 mph 62.5% 0.00 in 0 W/m2
01:19 41.5 °F 29.6 °F 30.16 in WNW 2.9 mph 9 mph 62.3% 0.00 in 0 W/m2
01:24 41.5 °F 29.5 °F 30.16 in WNW 2.9 mph 9 mph 62% 0.00 in 0 W/m2
01:29 41.5 °F 29.6 °F 30.16 in WNW 0.1 mph 9 mph 62.2% 0.00 in 0 W/m2
01:34 41.5 °F 29.6 °F 30.16 in WNW 0.8 mph 9 mph 62.4% 0.00 in 0 W/m2
01:39 41.5 °F 29.7 °F 30.16 in Calm   4 mph 62.6% 0.00 in 0 W/m2
01:44 41.5 °F 29.6 °F 30.16 in WNW 2.1 mph 7 mph 62.4% 0.00 in 0 W/m2
01:49 41.4 °F 29.6 °F 30.17 in WNW 1.7 mph 7 mph 62.5% 0.00 in 0 W/m2
01:54 41.4 °F 29.8 °F 30.17 in WNW 2.4 mph 7 mph 63% 0.00 in 0 W/m2
01:59 41.4 °F 29.8 °F 30.17 in WNW 1.1 mph 7 mph 63% 0.00 in 0 W/m2
02:04 41.4 °F 29.8 °F 30.17 in NW 1.8 mph 7 mph 63% 0.00 in 0 W/m2
02:09 41.4 °F 29.7 °F 30.17 in NW 0.4 mph 7 mph 63% 0.00 in 0 W/m2
02:14 41.3 °F 29.7 °F 30.17 in NW 0.7 mph 7 mph 63% 0.00 in 0 W/m2
02:19 41.3 °F 29.7 °F 30.17 in NW 1.6 mph 7 mph 63% 0.00 in 0 W/m2
02:24 41.2 °F 29.6 °F 30.17 in NW 1.1 mph 7 mph 63% 0.00 in 0 W/m2
02:29 41.2 °F 29.8 °F 30.18 in NW 0.9 mph 7 mph 63.5% 0.00 in 0 W/m2
02:34 41.2 °F 30 °F 30.18 in NW 0.9 mph 7 mph 64% 0.00 in 0 W/m2
02:39 41.2 °F 30 °F 30.18 in NW 0.2 mph 5 mph 64% 0.00 in 0 W/m2
02:44 41.2 °F 30 °F 30.17 in NW 1.5 mph 6 mph 64% 0.00 in 0 W/m2
02:49 41.2 °F 30 °F 30.18 in NW 0.3 mph 6 mph 64% 0.00 in 0 W/m2
02:54 41.2 °F 30 °F 30.17 in NW 0.3 mph 6 mph 64% 0.00 in 0 W/m2
02:59 41.2 °F 29.9 °F 30.17 in NW 0.6 mph 6 mph 64% 0.00 in 0 W/m2
03:04 41.2 °F 29.9 °F 30.18 in NW 0.1 mph 6 mph 64% 0.00 in 0 W/m2
03:09 41.2 °F 30 °F 30.17 in NW 0.9 mph 5 mph 64% 0.00 in 0 W/m2
03:14 41.2 °F 30 °F 30.18 in NW 0.2 mph 5 mph 64% 0.00 in 0 W/m2
03:19 41.2 °F 30 °F 30.17 in NW 0.1 mph 5 mph 64.2% 0.00 in 0 W/m2
03:24 41.2 °F 30 °F 30.17 in Calm   5 mph 64.1% 0.00 in 0 W/m2
03:29 41.2 °F 30.3 °F 30.17 in Calm   5 mph 64.9% 0.00 in 0 W/m2
03:34 41.2 °F 30.4 °F 30.16 in Calm   5 mph 65.1% 0.00 in 0 W/m2
03:39 41.1 °F 30.3 °F 30.16 in NW 0.1 mph 3 mph 65% 0.00 in 0 W/m2
03:44 41.1 °F 30.3 °F 30.16 in NW 0.4 mph 3 mph 65% 0.00 in 0 W/m2
03:49 41.1 °F 30.3 °F 30.16 in NW 0.4 mph 3 mph 65% 0.00 in 0 W/m2
03:54 41.1 °F 30.5 °F 30.16 in NW 0.3 mph 4 mph 65.6% 0.00 in 0 W/m2
03:59 41 °F 30.4 °F 30.16 in Calm   4 mph 65.7% 0.00 in 0 W/m2
04:00 41 °F 30.2 °F 30.15 in Calm   4 mph 65% 0.00 in 0 W/m2
04:09 41 °F 30.5 °F 30.16 in NW 0.8 mph 5 mph 66% 0.00 in 0 W/m2
04:14 40.9 °F 30.4 °F 30.16 in Calm   5 mph 66% 0.00 in 0 W/m2
04:19 40.9 °F 30.4 °F 30.16 in NW 1.4 mph 6 mph 66% 0.00 in 0 W/m2
04:24 40.9 °F 30.5 °F 30.16 in NW 0.6 mph 6 mph 66.1% 0.00 in 0 W/m2
04:29 40.9 °F 30.8 °F 30.15 in NW 0.5 mph 6 mph 67% 0.00 in 0 W/m2
04:34 40.9 °F 30.8 °F 30.14 in NW 1.2 mph 8 mph 66.9% 0.00 in 0 W/m2
04:39 40.8 °F 30.5 °F 30.15 in Calm   8 mph 66.3% 0.00 in 0 W/m2
04:44 40.8 °F 30.6 °F 30.15 in NW 2.6 mph 8 mph 66.7% 0.00 in 0 W/m2
04:49 40.7 °F 30.4 °F 30.15 in NW 1.7 mph 8 mph 66.3% 0.00 in 0 W/m2
04:54 40.7 °F 30.4 °F 30.15 in NNW 0.4 mph 8 mph 66.5% 0.00 in 0 W/m2
04:59 40.7 °F 30.6 °F 30.15 in NNW 0.4 mph 8 mph 67% 0.00 in 0 W/m2
05:04 40.7 °F 30.6 °F 30.15 in NNW 0.5 mph 8 mph 67% 0.00 in 0 W/m2
05:09 40.6 °F 30.5 °F 30.16 in NNW 0.1 mph 4 mph 67% 0.00 in 0 W/m2
05:14 40.6 °F 30.5 °F 30.16 in Calm   4 mph 67% 0.00 in 0 W/m2
05:19 40.6 °F 30.6 °F 30.16 in Calm   4 mph 67.2% 0.00 in 0 W/m2
05:24 40.6 °F 31 °F 30.16 in NNW 1 mph 5 mph 68.3% 0.00 in 0 W/m2
05:29 40.6 °F 31.8 °F 30.16 in NNW 0.2 mph 5 mph 70.6% 0.00 in 0 W/m2
05:34 40.5 °F 32 °F 30.16 in Calm   5 mph 71.6% 0.00 in 0 W/m2
05:39 40.4 °F 32.3 °F 30.16 in NNW 0.1 mph 2 mph 72.8% 0.00 in 0 W/m2
05:44 40.2 °F 32.6 °F 30.16 in NNW 0.2 mph 2 mph 73.9% 0.00 in 0 W/m2
05:49 40.1 °F 32.7 °F 30.16 in Calm   2 mph 74.6% 0.00 in 0 W/m2
05:54 40.1 °F 33.1 °F 30.17 in Calm   2 mph 75.9% 0.00 in 0 W/m2
05:59 39.9 °F 32.6 °F 30.16 in Calm   2 mph 75% 0.00 in 0 W/m2
06:04 39.7 °F 32.5 °F 30.17 in Calm   2 mph 75% 0.01 in 0 W/m2
06:09 39.7 °F 32.4 °F 30.17 in Calm     75% 0.01 in 0 W/m2
06:14 39.6 °F 32.3 °F 30.17 in Calm   1 mph 74.8% 0.01 in 0 W/m2
06:19 39.5 °F 32.1 °F 30.16 in Calm   1 mph 74.5% 0.01 in 0 W/m2
06:24 39.5 °F 32.3 °F 30.17 in Calm   1 mph 75% 0.01 in 0 W/m2
06:29 39.5 °F 32.6 °F 30.17 in NNW 0.1 mph 2 mph 76% 0.01 in 0 W/m2
06:34 39.5 °F 32.3 °F 30.17 in Calm   2 mph 75.2% 0.01 in 0 W/m2
06:39 39.5 °F 32.2 °F 30.16 in Calm     74.9% 0.01 in 0 W/m2
06:44 39.5 °F 32.2 °F 30.16 in Calm     74.7% 0.01 in 0 W/m2
06:49 39.5 °F 32.3 °F 30.17 in Calm     75% 0.01 in 0 W/m2
06:54 39.5 °F 32.3 °F 30.17 in Calm     75% 0.01 in 0 W/m2
06:59 39.5 °F 32.3 °F 30.18 in Calm     75% 0.01 in 0 W/m2
07:04 39.5 °F 32.6 °F 30.18 in Calm     76% 0.01 in 0 W/m2
07:09 39.5 °F 32.6 °F 30.18 in Calm     76% 0.01 in 0 W/m2
07:14 39.5 °F 32.5 °F 30.17 in Calm     76% 0.01 in 0 W/m2
07:19 39.3 °F 32.4 °F 30.17 in Calm     76% 0.01 in 0 W/m2
07:24 39.3 °F 32.9 °F 30.17 in Calm     77.6% 0.01 in 0 W/m2
07:29 39.3 °F 33 °F 30.17 in Calm     78% 0.01 in 0 W/m2
07:34 39.2 °F 33.2 °F 30.17 in Calm     78.8% 0.01 in 0 W/m2
07:39 39.1 °F 33.3 °F 30.17 in Calm     79.3% 0.00 in 0 W/m2
07:44 39 °F 33.3 °F 30.18 in Calm     80% 0.00 in 5 W/m2
07:49 38.9 °F 33.2 °F 30.18 in Calm     80% 0.00 in 7 W/m2
07:54 38.8 °F 33.1 °F 30.18 in Calm     80% 0.00 in 9 W/m2
07:59 38.6 °F 33.2 °F 30.18 in Calm     80.5% 0.00 in 12 W/m2
08:00 38.6 °F 33.3 °F 30.18 in Calm     81% 0.00 in 12 W/m2
08:09 38.5 °F 33.2 °F 30.18 in Calm     81% 0.00 in 21 W/m2
08:14 38.5 °F 33.2 °F 30.18 in Calm     81% 0.00 in 23 W/m2
08:19 38.5 °F 33.2 °F 30.18 in Calm     81% 0.01 in 23 W/m2
08:24 38.5 °F 33.2 °F 30.17 in Calm     81% 0.01 in 28 W/m2
08:29 38.6 °F 33.3 °F 30.17 in Calm     81% 0.01 in 46 W/m2
08:34 38.5 °F 33 °F 30.17 in Calm     80.5% 0.01 in 49 W/m2
08:39 38.5 °F 32.9 °F 30.17 in Calm     80% 0.01 in 40 W/m2
08:44 38.5 °F 32.9 °F 30.17 in Calm     80% 0.01 in 39 W/m2
08:49 38.6 °F 33.2 °F 30.17 in Calm     80.8% 0.01 in 35 W/m2
08:54 38.7 °F 33.2 °F 30.17 in Calm     80.5% 0.01 in 47 W/m2
08:59 38.8 °F 33.2 °F 30.17 in Calm     80% 0.01 in 54 W/m2
09:04 38.8 °F 33.1 °F 30.17 in Calm     79.6% 0.01 in 51 W/m2
09:09 38.9 °F 33 °F 30.17 in Calm     79% 0.01 in 54 W/m2
09:14 39.1 °F 33.1 °F 30.16 in Calm     79% 0.01 in 62 W/m2
09:19 39.2 °F 33.3 °F 30.17 in Calm     79.3% 0.01 in 76 W/m2
09:24 39.3 °F 33.7 °F 30.17 in Calm     80% 0.01 in 76 W/m2
09:29 39.5 °F 33.5 °F 30.17 in Calm     79.1% 0.02 in 74 W/m2
09:34 39.6 °F 33.3 °F 30.17 in Calm     78% 0.02 in 65 W/m2
09:39 39.7 °F 33.2 °F 30.17 in Calm     77.3% 0.01 in 42 W/m2
09:44 39.8 °F 32.9 °F 30.17 in Calm     76.3% 0.01 in 42 W/m2
09:49 39.8 °F 32.6 °F 30.17 in Calm     75.3% 0.01 in 40 W/m2
09:54 39.9 °F 32.6 °F 30.17 in Calm     75% 0.01 in 37 W/m2
09:59 39.9 °F 32.6 °F 30.17 in Calm     75% 0.01 in 70 W/m2
10:04 40 °F 32.7 °F 30.16 in Calm     75% 0.01 in 72 W/m2
10:09 40 °F 32.5 °F 30.16 in Calm     74.3% 0.01 in 58 W/m2
10:14 40.1 °F 32.8 °F 30.16 in Calm     74.8% 0.01 in 54 W/m2
10:19 40.2 °F 32.6 °F 30.16 in Calm     74% 0.01 in 70 W/m2
10:24 40.2 °F 32.4 °F 30.15 in Calm     73.5% 0.01 in 69 W/m2
10:29 40.2 °F 32.6 °F 30.15 in Calm     74% 0.01 in 74 W/m2
10:34 40.2 °F 32.6 °F 30.15 in Calm     74.2% 0.01 in 83 W/m2
10:39 40.3 °F 33 °F 30.15 in Calm     74.9% 0.00 in 83 W/m2
10:44 40.3 °F 33 °F 30.14 in Calm     75% 0.00 in 98 W/m2
10:49 40.3 °F 33.5 °F 30.14 in Calm     76.3% 0.00 in 86 W/m2
10:54 40.4 °F 34.1 °F 30.13 in NNW 0.1 mph 2 mph 77.8% 0.00 in 97 W/m2
10:59 40.4 °F 33.5 °F 30.12 in NNW 0.1 mph 2 mph 76.2% 0.00 in 97 W/m2
11:04 40.4 °F 33.2 °F 30.12 in Calm   2 mph 75.4% 0.00 in 83 W/m2
11:09 40.3 °F 32.8 °F 30.12 in Calm     74.2% 0.00 in 79 W/m2
11:14 40.3 °F 32.7 °F 30.12 in Calm     74% 0.00 in 58 W/m2
11:19 40.2 °F 32.5 °F 30.12 in Calm     73.5% 0.00 in 58 W/m2
11:24 40.2 °F 32.7 °F 30.12 in Calm     74.2% 0.00 in 62 W/m2
11:29 40.3 °F 33 °F 30.11 in Calm     75% 0.00 in 67 W/m2
11:34 40.3 °F 32.9 °F 30.11 in Calm     74.7% 0.00 in 67 W/m2
11:39 40.2 °F 33 °F 30.11 in Calm     75.2% 0.00 in 56 W/m2
11:44 40.2 °F 33.1 °F 30.11 in Calm     75.6% 0.00 in 53 W/m2
11:49 40.1 °F 33.3 °F 30.11 in Calm     76.4% 0.00 in 69 W/m2
11:54 40.1 °F 33.6 °F 30.10 in Calm     77.5% 0.01 in 70 W/m2
11:59 40 °F 33.8 °F 30.10 in Calm     78.2% 0.01 in 62 W/m2
12:00 40 °F 34 °F 30.09 in Calm     79% 0.01 in 62 W/m2
12:09 40 °F 34.4 °F 30.10 in Calm     80% 0.01 in 72 W/m2
12:14 40.1 °F 34.5 °F 30.10 in Calm     80.3% 0.01 in 65 W/m2
12:19 40.1 °F 34.7 °F 30.10 in Calm     80.7% 0.02 in 58 W/m2
12:24 40 °F 34.5 °F 30.09 in Calm     80.5% 0.02 in 72 W/m2
12:29 39.9 °F 34.7 °F 30.09 in Calm     81.7% 0.02 in 77 W/m2
12:34 39.8 °F 34.8 °F 30.09 in Calm     82.2% 0.02 in 49 W/m2
12:39 39.7 °F 35 °F 30.09 in Calm     83% 0.02 in 35 W/m2
12:44 39.7 °F 35 °F 30.09 in Calm     83.1% 0.02 in 46 W/m2
12:49 39.6 °F 35.1 °F 30.08 in NNW 0.3 mph 3 mph 83.8% 0.02 in 54 W/m2
12:54 39.4 °F 35 °F 30.07 in Calm   3 mph 84% 0.02 in 54 W/m2
12:59 39.3 °F 34.9 °F 30.07 in Calm   3 mph 84% 0.02 in 54 W/m2
13:04 39.2 °F 34.9 °F 30.07 in NNW 0.3 mph 3 mph 84.4% 0.02 in 46 W/m2
13:09 39.2 °F 35.1 °F 30.07 in NNW 0.8 mph 3 mph 85% 0.01 in 49 W/m2
13:14 39.1 °F 35 °F 30.06 in NNW 0.7 mph 3 mph 85% 0.02 in 46 W/m2
13:19 39.1 °F 35 °F 30.05 in NNW 0.2 mph 3 mph 85% 0.02 in 51 W/m2
13:24 39.1 °F 35.1 °F 30.06 in NNW 0.4 mph 3 mph 85.4% 0.02 in 40 W/m2
13:29 39 °F 35.2 °F 30.06 in NNW 0.5 mph 3 mph 86% 0.02 in 30 W/m2
13:34 38.9 °F 35.1 °F 30.05 in NNW 1.5 mph 5 mph 86% 0.02 in 30 W/m2
13:39 38.8 °F 35 °F 30.04 in NNE 1.9 mph 5 mph 86% 0.02 in 32 W/m2
13:44 38.7 °F 35.2 °F 30.04 in NE 1.1 mph 5 mph 86.9% 0.02 in 33 W/m2
13:49 38.7 °F 35.2 °F 30.05 in NE 1.9 mph 5 mph 87% 0.03 in 28 W/m2
13:54 38.6 °F 35.1 °F 30.05 in NE 0.8 mph 5 mph 87% 0.03 in 26 W/m2
13:59 38.5 °F 35 °F 30.05 in NE 2.4 mph 5 mph 87% 0.03 in 47 W/m2
14:04 38.4 °F 35 °F 30.03 in NE 1.6 mph 5 mph 87.2% 0.03 in 63 W/m2
14:09 38.4 °F 35.2 °F 30.03 in NE 0.7 mph 4 mph 88% 0.03 in 30 W/m2
14:14 38.4 °F 35.2 °F 30.04 in NE 0.9 mph 4 mph 88% 0.03 in 25 W/m2
14:19 38.4 °F 35.2 °F 30.03 in NE 1 mph 4 mph 88% 0.03 in 19 W/m2
14:24 38.4 °F 35.4 °F 30.03 in NE 1 mph 4 mph 88.7% 0.03 in 25 W/m2
14:29 38.3 °F 35.3 °F 30.03 in NE 1.1 mph 6 mph 88.7% 0.03 in 25 W/m2
14:34 38.3 °F 35.3 °F 30.02 in NE 1 mph 6 mph 89% 0.03 in 23 W/m2
14:39 38.3 °F 35.3 °F 30.02 in NE 1.4 mph 4 mph 89% 0.03 in 23 W/m2
14:44 38.1 °F 35.2 °F 30.02 in ENE 2.9 mph 7 mph 89% 0.03 in 21 W/m2
14:49 38 °F 35.2 °F 30.01 in ENE 1.3 mph 7 mph 89.5% 0.03 in 12 W/m2
14:54 37.9 °F 35.2 °F 30.02 in ENE 0.9 mph 7 mph 90% 0.03 in 9 W/m2
14:59 37.9 °F 35.2 °F 30.02 in ENE 1.2 mph 7 mph 90% 0.03 in 7 W/m2
15:04 37.8 °F 35.1 °F 30.02 in ENE 1 mph 7 mph 90% 0.03 in 9 W/m2
15:09 37.8 °F 35.3 °F 30.02 in ENE 0.3 mph 5 mph 90.4% 0.02 in 5 W/m2
15:14 37.8 °F 35.4 °F 30.02 in ENE 0.3 mph 5 mph 91% 0.02 in 0 W/m2
15:19 37.8 °F 35.4 °F 30.01 in ENE 1 mph 5 mph 91% 0.03 in 5 W/m2
15:24 37.8 °F 35.4 °F 30.01 in ENE 1.3 mph 6 mph 91% 0.04 in 5 W/m2
15:29 37.8 °F 35.4 °F 30.01 in ENE 1.6 mph 6 mph 91% 0.04 in 0 W/m2
15:34 37.7 °F 35.3 °F 30.01 in ENE 2.4 mph 6 mph 91% 0.05 in 5 W/m2
15:39 37.5 °F 35.3 °F 30.00 in ENE 0.9 mph 6 mph 91.4% 0.05 in 5 W/m2
15:44 37.5 °F 35.4 °F 30.00 in ENE 0.7 mph 6 mph 92% 0.05 in 0 W/m2
15:49 37.5 °F 35.4 °F 29.99 in ENE 0.7 mph 6 mph 92% 0.05 in 0 W/m2
15:54 37.5 °F 35.4 °F 29.99 in ENE 2.3 mph 6 mph 92% 0.05 in 0 W/m2
15:59 37.4 °F 35.3 °F 29.99 in ENE 2.4 mph 6 mph 92% 0.05 in 0 W/m2
16:00 37.4 °F 35.3 °F 29.98 in ENE 2 mph 6 mph 92% 0.05 in 0 W/m2
16:09 37.3 °F 35.2 °F 29.98 in ENE 1.4 mph 6 mph 92% 0.06 in 0 W/m2
16:14 37.3 °F 35.2 °F 29.98 in ENE 1.3 mph 6 mph 92% 0.06 in 0 W/m2
16:19 37.3 °F 35.4 °F 29.98 in ENE 0.5 mph 6 mph 92.9% 0.06 in 0 W/m2
16:24 37.2 °F 35.4 °F 29.98 in ENE 0.8 mph 6 mph 93% 0.06 in 0 W/m2
16:29 37.1 °F 35.1 °F 29.97 in ENE 1 mph 6 mph 92.1% 0.06 in 0 W/m2
16:34 37 °F 34.9 °F 29.97 in ENE 2.4 mph 6 mph 92% 0.06 in 0 W/m2
16:39 36.9 °F 34.9 °F 29.97 in ENE 1.6 mph 6 mph 92.2% 0.02 in 0 W/m2
16:44 36.8 °F 35 °F 29.97 in ENE 0.9 mph 6 mph 93% 0.03 in 0 W/m2
16:49 36.8 °F 35 °F 29.97 in ENE 1.8 mph 6 mph 93% 0.03 in 0 W/m2
16:54 36.8 °F 34.9 °F 29.96 in Calm   6 mph 93% 0.03 in 0 W/m2
16:59 36.8 °F 35 °F 29.96 in Calm   6 mph 93% 0.03 in 0 W/m2
17:04 36.8 °F 35 °F 29.96 in ENE 0.4 mph 6 mph 93% 0.03 in 0 W/m2
17:09 36.8 °F 35 °F 29.96 in ENE 0.5 mph 3 mph 93% 0.01 in 0 W/m2
17:14 36.9 °F 35.1 °F 29.96 in Calm   3 mph 93% 0.01 in 0 W/m2
17:19 37 °F 35.1 °F 29.96 in Calm   3 mph 93% 0.01 in 0 W/m2
17:24 37 °F 35.1 °F 29.95 in Calm   3 mph 93% 0.01 in 0 W/m2
17:29 37 °F 35.2 °F 29.96 in Calm   3 mph 93% 0.01 in 0 W/m2
17:34 37 °F 35.2 °F 29.96 in Calm   3 mph 93% 0.01 in 0 W/m2
17:39 37 °F 35.2 °F 29.96 in Calm     93% 0.01 in 0 W/m2
17:44 37.1 °F 35.5 °F 29.96 in ENE 0.6 mph 4 mph 93.8% 0.01 in 0 W/m2
17:49 37.1 °F 35.5 °F 29.95 in Calm   4 mph 94% 0.01 in 0 W/m2
17:54 37.1 °F 35.6 °F 29.95 in ENE 0.3 mph 4 mph 94% 0.02 in 0 W/m2
17:59 37.2 °F 35.6 °F 29.95 in ENE 0.1 mph 4 mph 94% 0.02 in 0 W/m2
18:04 37.2 °F 35.6 °F 29.95 in Calm   4 mph 94% 0.02 in 0 W/m2
18:09 37.1 °F 35.5 °F 29.94 in Calm     94% 0.01 in 0 W/m2
18:14 37.1 °F 35.4 °F 29.94 in ENE 0.2 mph 2 mph 93.6% 0.01 in 0 W/m2
18:19 37.1 °F 35.3 °F 29.94 in ENE 0.1 mph 2 mph 93.3% 0.01 in 0 W/m2
18:24 37 °F 35.4 °F 29.94 in Calm   2 mph 94% 0.02 in 0 W/m2
18:29 37 °F 35.5 °F 29.93 in Calm   2 mph 94% 0.02 in 0 W/m2
18:34 37.1 °F 35.5 °F 29.94 in Calm   2 mph 94% 0.02 in 0 W/m2
18:39 37.1 °F 35.5 °F 29.94 in ENE 0.7 mph 3 mph 94% 0.02 in 0 W/m2
18:44 37.1 °F 35.5 °F 29.93 in ENE 0.4 mph 3 mph 94% 0.02 in 0 W/m2
18:49 37 °F 35.5 °F 29.93 in ENE 0.5 mph 5 mph 94% 0.02 in 0 W/m2
18:54 37.1 °F 35.5 °F 29.93 in ENE 0.1 mph 5 mph 94% 0.03 in 0 W/m2
18:59 37.1 °F 35.5 °F 29.92 in Calm   5 mph 94% 0.03 in 0 W/m2
19:04 37.1 °F 35.5 °F 29.92 in Calm   5 mph 94% 0.03 in 0 W/m2
19:09 37.1 °F 35.5 °F 29.92 in Calm     94% 0.02 in 0 W/m2
19:14 37.1 °F 35.5 °F 29.92 in ENE 0.7 mph 3 mph 94% 0.02 in 0 W/m2
19:19 37.1 °F 35.5 °F 29.92 in ENE 0.1 mph 3 mph 94% 0.03 in 0 W/m2
19:24 37.1 °F 35.5 °F 29.91 in ENE 0.2 mph 3 mph 94% 0.03 in 0 W/m2
19:29 37.1 °F 35.5 °F 29.91 in Calm   3 mph 94% 0.03 in 0 W/m2
19:34 37.1 °F 35.5 °F 29.91 in ENE 0.3 mph 3 mph 94% 0.03 in 0 W/m2
19:39 37.1 °F 35.5 °F 29.91 in Calm   3 mph 94% 0.02 in 0 W/m2
19:44 37.1 °F 35.5 °F 29.91 in Calm   3 mph 94% 0.02 in 0 W/m2
19:49 37.1 °F 35.6 °F 29.91 in ENE 0.3 mph 3 mph 94% 0.02 in 0 W/m2
19:54 37.1 °F 35.6 °F 29.90 in ENE 0.9 mph 5 mph 94% 0.02 in 0 W/m2
19:59 37.1 °F 35.6 °F 29.90 in ENE 1.1 mph 5 mph 94% 0.02 in 0 W/m2
20:00 37.1 °F 35.5 °F 29.90 in ENE 2.5 mph 5 mph 94% 0.02 in 0 W/m2
20:09 37.1 °F 35.5 °F 29.90 in ENE 0.2 mph 2 mph 94% 0.02 in 0 W/m2
20:14 37.1 °F 35.5 °F 29.89 in ENE 0.5 mph 3 mph 94% 0.02 in 0 W/m2
20:19 37.1 °F 35.5 °F 29.89 in ENE 1 mph 4 mph 94% 0.02 in 0 W/m2
20:24 37 °F 35.5 °F 29.89 in ENE 1 mph 4 mph 94% 0.02 in 0 W/m2
20:29 37 °F 35.6 °F 29.89 in ENE 1.2 mph 4 mph 94.4% 0.02 in 0 W/m2
20:34 37.1 °F 35.8 °F 29.89 in ENE 0.4 mph 4 mph 95% 0.02 in 0 W/m2
20:39 37.1 °F 35.8 °F 29.88 in ENE 0.1 mph 3 mph 95% 0.01 in 0 W/m2
20:44 37.1 °F 35.7 °F 29.88 in ENE 1.2 mph 4 mph 94.5% 0.02 in 0 W/m2
20:49 37.1 °F 35.5 °F 29.88 in ENE 0.8 mph 4 mph 94% 0.02 in 0 W/m2
20:54 37.1 °F 35.5 °F 29.87 in ENE 0.5 mph 4 mph 94% 0.02 in 0 W/m2
20:59 37 °F 35.4 °F 29.87 in ENE 0.8 mph 4 mph 94% 0.02 in 0 W/m2
21:04 36.9 °F 35.4 °F 29.87 in ENE 0.5 mph 5 mph 94% 0.02 in 0 W/m2
21:09 36.9 °F 35.3 °F 29.86 in ENE 0.6 mph 6 mph 94.2% 0.02 in 0 W/m2
21:14 36.8 °F 35.5 °F 29.85 in ENE 0.4 mph 6 mph 94.9% 0.02 in 0 W/m2
21:19 36.7 °F 35.4 °F 29.85 in Calm   6 mph 95% 0.03 in 0 W/m2
21:24 36.7 °F 35.4 °F 29.85 in ENE 0.7 mph 6 mph 95% 0.03 in 0 W/m2
21:29 36.7 °F 35.4 °F 29.84 in ENE 0.5 mph 6 mph 95% 0.03 in 0 W/m2
21:34 36.7 °F 35.4 °F 29.84 in ENE 1.4 mph 6 mph 95% 0.03 in 0 W/m2
21:39 36.6 °F 35.3 °F 29.84 in Calm   4 mph 95% 0.02 in 0 W/m2
21:44 36.6 °F 35.4 °F 29.83 in ENE 0.1 mph 4 mph 95% 0.02 in 0 W/m2
21:49 36.6 °F 35.3 °F 29.83 in Calm   4 mph 95% 0.02 in 0 W/m2
21:54 36.6 °F 35.3 °F 29.83 in ENE 0.1 mph 4 mph 95% 0.03 in 0 W/m2
21:59 36.6 °F 35.3 °F 29.82 in ENE 0.1 mph 4 mph 95% 0.03 in 0 W/m2
22:04 36.6 °F 35.3 °F 29.82 in ENE 0.1 mph 4 mph 95% 0.03 in 0 W/m2
22:05 36.6 °F 35.3 °F 29.82 in Calm   2 mph 95% 0.02 in 0 W/m2
22:30 36.5 °F 35.2 °F 29.80 in Calm   6 mph 95% 0.03 in 0 W/m2
23:04 36.5 °F 35.2 °F 29.80 in NE 2.2 mph 6 mph 95% 0.03 in 0 W/m2
23:09 36.5 °F 35.2 °F 29.80 in NE 1.3 mph 5 mph 95% 0.02 in 0 W/m2
23:14 36.5 °F 35.2 °F 29.81 in NE 0.7 mph 5 mph 95% 0.02 in 0 W/m2
23:19 36.5 °F 35.2 °F 29.80 in North 2.8 mph 6 mph 95% 0.02 in 0 W/m2
23:24 36.5 °F 35.2 °F 29.80 in NNW 2.3 mph 7 mph 95% 0.02 in 0 W/m2
23:29 36.5 °F 35.2 °F 29.80 in NNW 0.3 mph 7 mph 95% 0.02 in 0 W/m2
23:34 36.5 °F 35.2 °F 29.80 in NNW 1 mph 7 mph 95% 0.02 in 0 W/m2
23:39 36.6 °F 35.3 °F 29.80 in NNW 2.7 mph 6 mph 95% 0.03 in 0 W/m2
23:44 36.6 °F 35.3 °F 29.80 in NNW 0.5 mph 6 mph 95% 0.05 in 0 W/m2
23:49 36.6 °F 35.3 °F 29.80 in NNW 2.6 mph 6 mph 95% 0.07 in 0 W/m2
23:54 36.6 °F 35.3 °F 29.79 in NNW 0.7 mph 6 mph 95% 0.08 in 0 W/m2
23:59 36.6 °F 35.3 °F 29.79 in NW 1.5 mph 6 mph 95% 0.09 in 0 W/m2
Hartford County Weather
Compliments of Weather Underground - 4 mb